createdAt,value
2023-05-15T00:01:06.115Z,17997.94
2023-05-15T00:05:08.293Z,18020.44
2023-05-15T00:09:09.767Z,17997.94
2023-05-15T00:13:12.811Z,17975.41
2023-05-15T00:17:14.314Z,18004.06
2023-05-15T00:21:15.763Z,17895.63
2023-05-15T00:25:17.201Z,17997.94
2023-05-15T00:29:19.934Z,18196.38
2023-05-15T00:33:21.402Z,18186.13
2023-05-15T00:37:23.586Z,18284.34
2023-05-15T00:41:26.688Z,18249.56
2023-05-15T00:45:30.499Z,18190.22
2023-05-15T00:49:32.951Z,18145.22
2023-05-15T00:53:34.874Z,18167.72
2023-05-15T00:57:37.336Z,18245.47
2023-05-15T01:01:40.272Z,18499.16
2023-05-15T01:05:41.893Z,18546.22
2023-05-15T01:09:44.594Z,18558.50
2023-05-15T01:13:46.025Z,18372.31
2023-05-15T01:17:50.486Z,18965.69
2023-05-15T01:22:33.586Z,20318.50
2023-05-15T01:27:00.693Z,22857.56
2023-05-15T01:31:14.546Z,21915.47
2023-05-15T01:35:23.592Z,24664.59
2023-05-15T01:39:28.752Z,28802.19
2023-05-15T01:43:33.467Z,22945.66
2023-05-15T01:47:41.312Z,20492.50
2023-05-15T01:51:45.763Z,26698.00
2023-05-15T01:55:49.425Z,21368.75
2023-05-15T01:59:51.921Z,22136.63
2023-05-15T02:03:55.189Z,19892.75
2023-05-15T02:07:56.833Z,20504.78
2023-05-15T02:12:00.117Z,21149.66
2023-05-15T02:16:01.728Z,21037.06
2023-05-15T02:20:05.798Z,19188.75
2023-05-15T02:24:07.506Z,18689.44
2023-05-15T02:28:22.408Z,19147.81
2023-05-15T02:32:31.007Z,18521.66
2023-05-15T02:36:40.306Z,18701.72
2023-05-15T02:40:42.961Z,18542.13
2023-05-15T02:44:45.006Z,20132.22
2023-05-15T02:48:48.035Z,19995.09
2023-05-15T02:52:50.828Z,18386.63
2023-05-15T02:56:52.225Z,18415.28
2023-05-15T03:00:53.661Z,18362.09
2023-05-15T03:04:55.066Z,18290.47
2023-05-15T03:08:57.874Z,18222.97
2023-05-15T03:12:59.359Z,18409.16
2023-05-15T03:17:00.769Z,18108.41
2023-05-15T03:21:05.153Z,18358.00
2023-05-15T03:25:10.656Z,18141.13
2023-05-15T03:29:13.182Z,18210.69
2023-05-15T03:33:14.827Z,17957.00
2023-05-15T03:37:16.224Z,18061.34
2023-05-15T03:41:18.947Z,18022.47
2023-05-15T03:45:20.810Z,17997.94
2023-05-15T03:49:22.412Z,18100.22
2023-05-15T03:53:23.838Z,17993.84
2023-05-15T03:57:26.611Z,17989.75
2023-05-15T04:01:27.997Z,17942.69
2023-05-15T04:05:29.522Z,17940.66
2023-05-15T04:09:30.978Z,17965.19
2023-05-15T04:13:33.753Z,17959.06
2023-05-15T04:17:35.183Z,17963.16
2023-05-15T04:21:36.677Z,17834.25
2023-05-15T04:25:38.148Z,17836.31
2023-05-15T04:29:41.060Z,17867.00
2023-05-15T04:33:42.430Z,17830.19
2023-05-15T04:37:43.988Z,17852.69
2023-05-15T04:41:45.433Z,17797.44
2023-05-15T04:45:48.314Z,17756.53
2023-05-15T04:49:49.734Z,17768.81
2023-05-15T04:53:51.168Z,17781.09
2023-05-15T04:57:52.709Z,17762.66
2023-05-15T05:01:55.556Z,17760.63
2023-05-15T05:05:57.261Z,17797.44
2023-05-15T05:09:58.821Z,17793.34
2023-05-15T05:14:00.526Z,17785.16
2023-05-15T05:18:03.598Z,17801.53
2023-05-15T05:22:05.778Z,17777.00
2023-05-15T05:26:07.359Z,17742.22
2023-05-15T05:30:09.764Z,17752.44
2023-05-15T05:34:12.498Z,17789.25
2023-05-15T05:38:13.879Z,17736.06
2023-05-15T05:42:15.351Z,17742.22
2023-05-15T05:46:16.766Z,17760.63
2023-05-15T05:50:19.551Z,17740.16
2023-05-15T05:54:20.990Z,17709.47
2023-05-15T05:58:25.998Z,17711.53
2023-05-15T06:02:28.002Z,17711.53
2023-05-15T06:06:30.794Z,17715.63
2023-05-15T06:10:32.346Z,17721.75
2023-05-15T06:14:33.944Z,17701.31
2023-05-15T06:18:35.473Z,17723.81
2023-05-15T06:22:38.778Z,17723.81
2023-05-15T06:26:40.313Z,17723.81
2023-05-15T06:30:42.020Z,17731.97
2023-05-15T06:34:43.517Z,17736.06
2023-05-15T06:38:47.676Z,17758.56
2023-05-15T06:42:49.162Z,17731.97
2023-05-15T06:46:50.645Z,17709.47
2023-05-15T06:50:52.241Z,17740.16
2023-05-15T06:54:55.041Z,17746.31
2023-05-15T06:58:56.410Z,17760.63
2023-05-15T07:02:57.780Z,17815.84
2023-05-15T07:06:59.274Z,17742.22
2023-05-15T07:11:02.008Z,17760.63
2023-05-15T07:15:05.322Z,17738.13
2023-05-15T07:19:08.373Z,17760.63
2023-05-15T07:23:09.802Z,17752.44
2023-05-15T07:27:12.621Z,17758.56
2023-05-15T07:31:14.350Z,17785.16
2023-05-15T07:35:16.186Z,17801.53
2023-05-15T07:39:17.613Z,17813.81
2023-05-15T07:43:20.346Z,17832.22
2023-05-15T07:47:21.836Z,17846.53
2023-05-15T07:51:23.294Z,17832.22
2023-05-15T07:55:25.107Z,17838.34
2023-05-15T07:59:28.088Z,17834.25
2023-05-15T08:03:29.727Z,17842.44
2023-05-15T08:07:31.899Z,17887.47
2023-05-15T08:11:33.612Z,17987.69
2023-05-15T08:15:36.377Z,18100.22
2023-05-15T08:19:37.824Z,18038.84
2023-05-15T08:23:39.280Z,18685.34
2023-05-15T08:27:40.686Z,18816.31
2023-05-15T08:31:43.759Z,18914.53
2023-05-15T08:35:45.269Z,18609.66
2023-05-15T08:39:46.779Z,18513.50
2023-05-15T08:43:50.857Z,18486.88
2023-05-15T08:47:53.892Z,18679.22
2023-05-15T08:51:55.636Z,18484.84
2023-05-15T08:55:57.426Z,18783.56
2023-05-15T09:00:00.134Z,18752.88
2023-05-15T09:04:04.286Z,18930.91
2023-05-15T09:08:07.867Z,19080.28
2023-05-15T09:12:10.997Z,19366.78
2023-05-15T09:16:12.489Z,19377.00
2023-05-15T09:20:27.152Z,19536.63
2023-05-15T09:24:28.603Z,19536.63
2023-05-15T09:28:31.080Z,19581.66
2023-05-15T09:32:32.574Z,19782.22
2023-05-15T09:36:35.677Z,19905.03
2023-05-15T09:40:38.747Z,19737.22
2023-05-15T09:44:42.202Z,19503.88
2023-05-15T09:48:43.765Z,19422.03
2023-05-15T09:52:46.536Z,19679.91
2023-05-15T09:56:48.094Z,19896.84
2023-05-15T10:00:49.845Z,19991.00
2023-05-15T10:04:54.797Z,19911.19
2023-05-15T10:08:57.676Z,19980.75
2023-05-15T10:13:02.137Z,20126.09
2023-05-15T10:17:03.907Z,20019.66
2023-05-15T10:21:05.614Z,20044.22
2023-05-15T10:25:15.628Z,20091.28
2023-05-15T10:29:19.125Z,20257.09
2023-05-15T10:33:21.430Z,20201.81
2023-05-15T10:37:23.583Z,20306.22
2023-05-15T10:41:28.508Z,20310.31
2023-05-15T10:45:31.435Z,20273.47
2023-05-15T10:49:32.865Z,20216.16
2023-05-15T10:53:34.902Z,20277.56
2023-05-15T10:57:38.019Z,20300.09
2023-05-15T11:01:40.886Z,20394.25
2023-05-15T11:06:07.822Z,20402.44
2023-05-15T11:10:36.414Z,20388.09
2023-05-15T11:14:41.921Z,20377.88
2023-05-15T11:18:44.955Z,20390.16
2023-05-15T11:22:57.555Z,20242.75
2023-05-15T11:27:03.465Z,20261.19
2023-05-15T11:31:07.631Z,20044.22
2023-05-15T11:35:10.222Z,20171.13
2023-05-15T11:39:11.954Z,19882.53
2023-05-15T11:43:21.363Z,20083.09
2023-05-15T11:47:25.236Z,20048.31
2023-05-15T11:51:27.130Z,19935.75
2023-05-15T11:55:30.675Z,20087.19
2023-05-15T11:59:33.905Z,19999.19
2023-05-15T12:03:37.028Z,20074.91
2023-05-15T12:07:38.659Z,20228.44
2023-05-15T12:11:40.275Z,20212.06
2023-05-15T12:15:42.665Z,20343.06
2023-05-15T12:19:46.560Z,20081.06
2023-05-15T12:24:03.354Z,20220.25
2023-05-15T12:28:08.736Z,20201.81
2023-05-15T12:32:10.715Z,20306.22
2023-05-15T12:36:13.675Z,20420.84
2023-05-15T12:40:15.072Z,20420.84
2023-05-15T12:44:16.836Z,20293.94
2023-05-15T12:48:18.335Z,20472.03
2023-05-15T12:52:21.263Z,20480.22
2023-05-15T12:56:22.783Z,20447.47
2023-05-15T13:00:24.983Z,20488.41
2023-05-15T13:04:26.693Z,20107.66
2023-05-15T13:08:29.646Z,20201.81
2023-05-15T13:12:35.660Z,20291.88
2023-05-15T13:16:37.160Z,20099.47
2023-05-15T13:20:40.198Z,65880.28
2023-05-15T13:24:46.575Z,65880.28
2023-05-15T13:28:48.178Z,65880.28
2023-05-15T13:32:49.720Z,65880.28
2023-05-15T13:36:51.363Z,65880.28
2023-05-15T13:40:54.132Z,65880.28
2023-05-15T13:44:55.530Z,65880.28
2023-05-15T13:48:59.302Z,65880.28
2023-05-15T13:53:00.731Z,65880.28
2023-05-15T13:57:04.014Z,65880.28
2023-05-15T14:01:06.322Z,65880.28
2023-05-15T14:05:08.772Z,65880.28
2023-05-15T14:09:10.231Z,65880.28
2023-05-15T14:13:12.983Z,65880.28
2023-05-15T14:17:14.704Z,65880.28
2023-05-15T14:21:16.179Z,65880.28
2023-05-15T14:25:17.590Z,65880.28
2023-05-15T14:29:20.306Z,65880.28
2023-05-15T14:33:21.701Z,65880.28
2023-05-15T14:37:23.090Z,65880.28
2023-05-15T14:41:24.575Z,65880.28
2023-05-15T14:45:28.366Z,65880.28
2023-05-15T14:49:29.783Z,65880.28
2023-05-15T14:53:31.228Z,65880.28
2023-05-15T14:57:32.652Z,65880.28
2023-05-15T15:01:35.380Z,65880.28
2023-05-15T15:05:37.837Z,65880.28
2023-05-15T15:09:39.385Z,65880.28
2023-05-15T15:13:40.812Z,65880.28
2023-05-15T15:17:43.648Z,65880.28
2023-05-15T15:21:45.174Z,65880.28
2023-05-15T15:25:46.566Z,65880.28
2023-05-15T15:29:48.019Z,65880.28
2023-05-15T15:33:50.785Z,65880.28
2023-05-15T15:37:52.284Z,65880.28
2023-05-15T15:41:53.669Z,65880.28
2023-05-15T15:45:55.178Z,65880.28
2023-05-15T15:49:58.828Z,65880.28
2023-05-15T15:54:00.319Z,65880.28
2023-05-15T15:58:02.064Z,65880.28
2023-05-15T16:02:05.784Z,65880.28
2023-05-15T16:06:08.649Z,65880.28
2023-05-15T16:10:12.905Z,65880.28
2023-05-15T16:14:14.860Z,65880.28
2023-05-15T16:18:16.572Z,65880.28
2023-05-15T16:22:19.578Z,65880.28
2023-05-15T16:26:20.935Z,65880.28
2023-05-15T16:30:26.333Z,65880.28
2023-05-15T16:34:32.186Z,65880.28
2023-05-15T16:38:34.910Z,65880.28
2023-05-15T16:42:36.667Z,65880.28
2023-05-15T16:46:38.174Z,65880.28
2023-05-15T16:50:39.677Z,65880.28
2023-05-15T16:54:42.690Z,65880.28
2023-05-15T16:58:44.166Z,65880.28
2023-05-15T17:02:45.621Z,65880.28
2023-05-15T17:06:47.163Z,65880.28
2023-05-15T17:10:50.001Z,65880.28
2023-05-15T17:14:51.459Z,65880.28
2023-05-15T17:18:52.844Z,65880.28
2023-05-15T17:22:54.520Z,65880.28
2023-05-15T17:26:57.415Z,65880.28
2023-05-15T17:30:58.820Z,65880.28
2023-05-15T17:35:00.259Z,65880.28
2023-05-15T17:39:01.694Z,65880.28
2023-05-15T17:43:04.589Z,65880.28
2023-05-15T17:47:06.469Z,65880.28
2023-05-15T17:51:07.964Z,65880.28
2023-05-15T17:55:09.641Z,65880.28
2023-05-15T17:59:12.369Z,65880.28
2023-05-15T18:03:13.868Z,65880.28
2023-05-15T18:07:15.317Z,65880.28
2023-05-15T18:11:22.564Z,65880.28
2023-05-15T18:15:25.989Z,65880.28
2023-05-15T18:19:27.727Z,65880.28
2023-05-15T18:23:37.005Z,65880.28
2023-05-15T18:27:38.400Z,65880.28
2023-05-15T18:31:41.215Z,65880.28
2023-05-15T18:35:42.670Z,65880.28
2023-05-15T18:39:44.087Z,65880.28
2023-05-15T18:43:45.720Z,65880.28
2023-05-15T18:47:48.605Z,65880.28
2023-05-15T18:51:50.046Z,65880.28
2023-05-15T18:55:51.778Z,65880.28
2023-05-15T18:59:53.171Z,65880.28
2023-05-15T19:03:55.898Z,65880.28
2023-05-15T19:07:57.392Z,65880.28
2023-05-15T19:12:00.437Z,65880.28
2023-05-15T19:16:01.851Z,65880.28
2023-05-15T19:20:05.765Z,65880.28
2023-05-15T19:24:07.445Z,65880.28
2023-05-15T19:28:09.138Z,65880.28
2023-05-15T19:32:10.638Z,65880.28
2023-05-15T19:36:13.531Z,65880.28
2023-05-15T19:40:15.187Z,65880.28
2023-05-15T19:44:16.591Z,65880.28
2023-05-15T19:48:18.016Z,65880.28
2023-05-15T19:52:20.992Z,65880.28
2023-05-15T19:56:23.268Z,65880.28
2023-05-15T20:00:25.267Z,65880.28
2023-05-15T20:04:26.836Z,65880.28
2023-05-15T20:08:30.086Z,65880.28
2023-05-15T20:12:31.583Z,65880.28
2023-05-15T20:17:13.981Z,20189.53
2023-05-15T20:21:15.735Z,17920.19
2023-05-15T20:25:18.692Z,17912.00
2023-05-15T20:29:20.109Z,17879.28
2023-05-15T20:33:21.612Z,65880.28
2023-05-15T20:37:23.685Z,65880.28
2023-05-15T20:41:26.664Z,65880.28
2023-05-15T20:45:28.406Z,65880.28
2023-05-15T20:49:30.575Z,65880.28
2023-05-15T20:53:32.038Z,65880.28
2023-05-15T20:57:34.979Z,65880.28
2023-05-15T21:01:36.510Z,65880.28
2023-05-15T21:05:37.996Z,65880.28
2023-05-15T21:09:39.501Z,65880.28
2023-05-15T21:13:42.254Z,65880.28
2023-05-15T21:17:43.754Z,65880.28
2023-05-15T21:21:45.417Z,65880.28
2023-05-15T21:25:47.250Z,65880.28
2023-05-15T21:29:50.014Z,65880.28
2023-05-15T21:33:51.514Z,65880.28
2023-05-15T21:37:52.939Z,65880.28
2023-05-15T21:41:54.358Z,65880.28
2023-05-15T21:45:57.346Z,17854.72
2023-05-15T21:49:58.784Z,17838.34
2023-05-15T21:54:58.853Z,65880.28
2023-05-15T21:59:00.261Z,17864.94
2023-05-15T22:03:03.575Z,17854.72
2023-05-15T22:07:05.000Z,65880.28
2023-05-15T22:11:06.405Z,17789.25
2023-05-15T22:15:09.275Z,17789.25
2023-05-15T22:19:21.426Z,65880.28
2023-05-15T22:23:30.152Z,65880.28
2023-05-15T22:27:31.836Z,65880.28
2023-05-15T22:31:33.281Z,65880.28
2023-05-15T22:35:36.097Z,65880.28
2023-05-15T22:39:38.858Z,65880.28
2023-05-15T22:43:40.438Z,65880.28
2023-05-15T22:47:41.866Z,65880.28
2023-05-15T22:51:44.734Z,65880.28
2023-05-15T22:55:46.191Z,65880.28
2023-05-15T22:59:48.470Z,65880.28
2023-05-15T23:03:49.990Z,65880.28
2023-05-15T23:07:52.834Z,65880.28
2023-05-15T23:11:54.407Z,65880.28
2023-05-15T23:15:55.841Z,65880.28
2023-05-15T23:19:57.417Z,65880.28
2023-05-15T23:24:00.629Z,65880.28
2023-05-15T23:28:02.316Z,65880.28
2023-05-15T23:32:04.302Z,65880.28
2023-05-15T23:36:06.152Z,65880.28
2023-05-15T23:40:10.147Z,65880.28
2023-05-15T23:44:11.548Z,65880.28
2023-05-15T23:48:13.073Z,65880.28
2023-05-15T23:52:14.522Z,65880.28
2023-05-15T23:56:17.274Z,65880.28
